createdAt,value
2022-08-20T00:00:07.655Z,1.90
2022-08-20T00:03:28.749Z,1.80
2022-08-20T00:06:30.632Z,2.30
2022-08-20T00:09:32.616Z,2.20
2022-08-20T00:12:45.457Z,2.00
2022-08-20T00:15:47.895Z,2.30
2022-08-20T00:18:49.858Z,2.10
2022-08-20T00:21:51.683Z,2.00
2022-08-20T00:25:00.020Z,1.83
2022-08-20T00:28:03.634Z,2.05
2022-08-20T00:31:09.414Z,2.00
2022-08-20T00:34:11.304Z,2.40
2022-08-20T00:37:13.298Z,2.20
2022-08-20T00:40:22.345Z,2.15
2022-08-20T00:44:04.054Z,2.00
2022-08-20T00:47:06.563Z,2.00
2022-08-20T00:50:09.764Z,2.50
2022-08-20T00:53:11.737Z,2.53
2022-08-20T00:56:13.742Z,2.50
2022-08-20T00:59:21.512Z,2.42
2022-08-20T01:02:26.461Z,2.60
2022-08-20T01:05:29.921Z,2.72
2022-08-20T01:08:32.114Z,2.50
2022-08-20T01:11:37.048Z,2.58
2022-08-20T01:17:47.409Z,2.85
2022-08-20T01:20:54.218Z,3.17
2022-08-20T01:24:14.134Z,2.65
2022-08-20T01:27:16.136Z,2.90
2022-08-20T01:30:18.167Z,3.00
2022-08-20T01:33:22.539Z,2.97
2022-08-20T01:36:31.681Z,2.92
2022-08-20T01:39:35.781Z,2.92
2022-08-20T01:42:58.972Z,2.78
2022-08-20T01:46:01.735Z,3.08
2022-08-20T01:49:23.507Z,2.90
2022-08-20T01:52:51.955Z,3.55
2022-08-20T01:55:53.764Z,2.72
2022-08-20T01:58:58.994Z,3.22
2022-08-20T02:02:02.655Z,3.25
2022-08-20T02:05:05.046Z,2.88
2022-08-20T02:08:06.724Z,3.17
2022-08-20T02:11:10.442Z,2.88
2022-08-20T02:14:12.430Z,3.08
2022-08-20T02:17:15.091Z,3.20
2022-08-20T02:20:20.468Z,3.00
2022-08-20T02:23:22.189Z,3.10
2022-08-20T02:26:25.398Z,2.90
2022-08-20T02:29:27.338Z,2.80
2022-08-20T02:32:33.956Z,2.80
2022-08-20T02:35:37.533Z,2.75
2022-08-20T02:38:41.059Z,2.80
2022-08-20T02:41:42.967Z,2.95
2022-08-20T02:44:44.745Z,2.95
2022-08-20T02:47:46.897Z,3.20
2022-08-20T02:51:03.278Z,2.60
2022-08-20T02:57:13.047Z,2.80
2022-08-20T03:00:21.404Z,3.08
2022-08-20T03:03:24.329Z,3.10
2022-08-20T03:06:27.001Z,3.10
2022-08-20T03:09:28.813Z,3.00
2022-08-20T03:12:30.510Z,2.97
2022-08-20T03:15:34.157Z,3.28
2022-08-20T03:18:43.714Z,3.17
2022-08-20T03:21:45.620Z,2.97
2022-08-20T03:24:47.519Z,3.45
2022-08-20T03:27:53.143Z,3.53
2022-08-20T03:30:56.906Z,3.35
2022-08-20T03:33:58.710Z,3.17
2022-08-20T03:37:00.451Z,3.20
2022-08-20T03:40:04.117Z,3.08
2022-08-20T03:43:08.771Z,3.25
2022-08-20T03:46:22.219Z,3.25
2022-08-20T03:49:25.796Z,3.40
2022-08-20T03:52:29.428Z,3.28
2022-08-20T03:55:32.308Z,3.50
2022-08-20T03:58:36.517Z,3.13
2022-08-20T04:01:45.481Z,3.00
2022-08-20T04:04:47.659Z,3.42
2022-08-20T04:07:50.834Z,3.08
2022-08-20T04:10:56.742Z,3.22
2022-08-20T04:13:58.598Z,3.22
2022-08-20T04:17:04.914Z,3.05
2022-08-20T04:20:10.997Z,3.30
2022-08-20T04:23:15.016Z,3.50
2022-08-20T04:26:17.171Z,3.22
2022-08-20T04:29:19.386Z,3.33
2022-08-20T04:32:21.916Z,3.15
2022-08-20T04:35:24.733Z,3.38
2022-08-20T04:38:26.955Z,3.17
2022-08-20T04:41:48.906Z,2.90
2022-08-20T04:44:50.640Z,3.45
2022-08-20T04:47:54.396Z,3.20
2022-08-20T04:50:58.342Z,3.40
2022-08-20T04:54:01.612Z,3.33
2022-08-20T04:57:03.442Z,3.13
2022-08-20T05:00:10.193Z,2.97
2022-08-20T05:03:12.466Z,2.72
2022-08-20T05:06:16.120Z,3.30
2022-08-20T05:09:17.883Z,3.28
2022-08-20T05:12:19.935Z,2.92
2022-08-20T05:15:24.450Z,3.08
2022-08-20T05:18:26.563Z,3.05
2022-08-20T05:21:28.309Z,3.50
2022-08-20T05:24:30.449Z,3.58
2022-08-20T05:27:32.353Z,4.00
2022-08-20T05:30:34.457Z,4.40
2022-08-20T05:33:38.795Z,4.88
2022-08-20T05:36:49.241Z,4.55
2022-08-20T05:39:51.332Z,4.78
2022-08-20T05:42:53.949Z,4.40
2022-08-20T05:45:58.839Z,4.13
2022-08-20T05:49:01.994Z,5.00
2022-08-20T05:52:05.406Z,4.82
2022-08-20T05:55:16.206Z,6.53
2022-08-20T05:58:26.783Z,6.20
2022-08-20T06:01:29.182Z,5.93
2022-08-20T06:04:32.303Z,5.85
2022-08-20T06:07:34.080Z,5.95
2022-08-20T06:10:36.976Z,5.75
2022-08-20T06:13:39.398Z,6.30
2022-08-20T06:16:56.304Z,5.57
2022-08-20T06:20:08.998Z,5.57
2022-08-20T06:23:12.594Z,5.68
2022-08-20T06:26:14.766Z,5.75
2022-08-20T06:29:16.534Z,5.47
2022-08-20T06:32:28.820Z,4.82
2022-08-20T06:35:34.638Z,4.78
2022-08-20T06:38:38.665Z,5.05
2022-08-20T06:41:41.254Z,5.07
2022-08-20T06:44:43.483Z,5.50
2022-08-20T06:47:46.881Z,4.85
2022-08-20T06:50:48.690Z,4.65
2022-08-20T06:53:50.668Z,4.80
2022-08-20T06:56:54.745Z,4.88
2022-08-20T06:59:56.538Z,4.60
2022-08-20T07:03:01.327Z,4.25
2022-08-20T07:06:03.127Z,4.10
2022-08-20T07:09:05.090Z,4.43
2022-08-20T07:12:07.579Z,4.35
2022-08-20T07:15:12.127Z,4.28
2022-08-20T07:18:14.924Z,4.25
2022-08-20T07:21:17.595Z,3.83
2022-08-20T07:24:19.753Z,4.20
2022-08-20T07:27:23.261Z,4.07
2022-08-20T07:30:55.828Z,3.63
2022-08-20T07:33:59.812Z,3.75
2022-08-20T07:37:01.774Z,3.88
2022-08-20T07:40:04.536Z,4.00
2022-08-20T07:43:06.653Z,4.20
2022-08-20T07:46:10.855Z,3.95
2022-08-20T07:49:12.656Z,4.25
2022-08-20T07:52:22.253Z,4.10
2022-08-20T07:55:57.199Z,4.57
2022-08-20T07:59:01.671Z,4.40
2022-08-20T08:02:03.932Z,4.05
2022-08-20T08:05:07.156Z,4.03
2022-08-20T08:08:13.807Z,4.05
2022-08-20T08:11:17.050Z,4.40
2022-08-20T08:14:26.946Z,4.55
2022-08-20T08:17:29.095Z,4.20
2022-08-20T08:20:31.219Z,3.83
2022-08-20T08:23:34.824Z,4.45
2022-08-20T08:26:36.681Z,3.97
2022-08-20T08:29:38.507Z,2.60
2022-08-20T08:33:03.045Z,2.78
2022-08-20T08:36:09.795Z,1.70
2022-08-20T08:39:11.604Z,1.45
2022-08-20T08:42:44.094Z,1.80
2022-08-20T08:45:57.919Z,1.60
2022-08-20T08:49:03.724Z,1.50
2022-08-20T08:52:13.844Z,1.35
2022-08-20T08:55:23.028Z,1.60
2022-08-20T08:58:24.813Z,1.48
2022-08-20T09:01:54.878Z,1.30
2022-08-20T09:04:54.106Z,1.50
2022-08-20T09:07:56.155Z,1.30
2022-08-20T09:11:15.140Z,1.40
2022-08-20T09:14:17.571Z,1.67
2022-08-20T09:17:22.706Z,1.70
2022-08-20T09:20:26.912Z,1.55
2022-08-20T09:23:36.537Z,1.52
2022-08-20T09:26:41.864Z,1.70
2022-08-20T09:29:50.979Z,1.58
2022-08-20T09:32:53.126Z,1.70
2022-08-20T09:35:57.975Z,1.70
2022-08-20T09:39:03.419Z,1.60
2022-08-20T10:43:54.964Z,2.35
2022-08-20T10:46:57.174Z,2.58
2022-08-20T10:50:02.770Z,2.33
2022-08-20T10:53:04.594Z,2.47
2022-08-20T10:56:06.690Z,2.35
2022-08-20T10:59:08.693Z,2.42
2022-08-20T11:02:11.231Z,1.95
2022-08-20T11:05:13.252Z,2.05
2022-08-20T11:08:15.373Z,2.17
2022-08-20T11:11:35.814Z,2.00
2022-08-20T11:14:40.684Z,2.20
2022-08-20T11:17:44.583Z,2.25
2022-08-20T11:20:46.864Z,2.35
2022-08-20T11:23:48.744Z,2.50
2022-08-20T11:26:53.391Z,2.40
2022-08-20T11:29:55.460Z,2.00
2022-08-20T11:32:59.839Z,2.33
2022-08-20T11:36:01.711Z,2.35
2022-08-20T11:39:04.338Z,2.15
2022-08-20T11:42:06.478Z,2.20
2022-08-20T11:45:10.964Z,2.58
2022-08-20T11:48:14.234Z,2.10
2022-08-20T11:51:16.213Z,1.88
2022-08-20T11:54:18.109Z,2.17
2022-08-20T11:57:26.142Z,1.88
2022-08-20T12:00:32.702Z,2.00
2022-08-20T12:03:36.605Z,1.83
2022-08-20T12:06:38.454Z,2.00
2022-08-20T12:09:51.265Z,1.77
2022-08-20T12:12:53.711Z,1.90
2022-08-20T12:15:55.737Z,1.63
2022-08-20T12:18:59.862Z,1.85
2022-08-20T12:22:20.403Z,1.77
2022-08-20T12:25:34.848Z,1.80
2022-08-20T12:28:36.875Z,1.70
2022-08-20T12:31:38.668Z,1.80
2022-08-20T12:34:42.757Z,1.60
2022-08-20T12:37:47.059Z,1.60
2022-08-20T12:40:49.062Z,1.50
2022-08-20T12:43:59.939Z,1.60
2022-08-20T12:47:27.323Z,1.50
2022-08-20T12:50:31.678Z,1.48
2022-08-20T12:53:33.959Z,1.50
2022-08-20T12:56:36.486Z,1.30
2022-08-20T12:59:41.486Z,1.27
2022-08-20T13:02:43.638Z,1.33
2022-08-20T13:05:49.942Z,1.40
2022-08-20T13:08:51.972Z,1.20
2022-08-20T13:42:42.114Z,1.30
2022-08-20T13:46:45.515Z,1.27
2022-08-20T13:49:22.040Z,1.20
2022-08-20T13:52:27.419Z,1.35
2022-08-20T13:55:32.413Z,1.38
2022-08-20T13:58:39.761Z,1.17
2022-08-20T14:52:36.911Z,1.08
2022-08-20T14:55:39.320Z,1.20
2022-08-20T14:58:41.175Z,1.08
2022-08-20T15:01:43.114Z,1.08
2022-08-20T15:04:53.932Z,1.00
2022-08-20T15:08:04.518Z,1.10
2022-08-20T15:11:14.993Z,0.95
2022-08-20T15:14:18.543Z,1.10
2022-08-20T15:17:25.007Z,1.00
2022-08-20T15:23:30.706Z,1.10
2022-08-20T15:26:33.339Z,0.98
2022-08-20T15:29:35.099Z,1.10
2022-08-20T15:32:38.886Z,1.02
2022-08-20T15:35:47.085Z,1.10
2022-08-20T15:38:52.707Z,1.00
2022-08-20T15:41:54.568Z,1.10
2022-08-20T15:44:56.732Z,1.10
2022-08-20T15:48:19.695Z,1.20
2022-08-20T15:51:31.702Z,1.00
2022-08-20T15:54:35.331Z,1.20
2022-08-20T15:57:50.200Z,1.20
2022-08-20T16:01:25.385Z,1.30
2022-08-20T16:05:05.355Z,1.40
2022-08-20T16:08:19.373Z,1.30
2022-08-20T16:11:36.286Z,1.45
2022-08-20T16:14:41.713Z,1.35
2022-08-20T16:20:54.663Z,1.23
2022-08-20T16:23:57.867Z,1.30
2022-08-20T16:27:21.035Z,1.40
2022-08-20T16:30:52.887Z,1.20
2022-08-20T16:34:28.206Z,1.20
2022-08-20T16:37:37.682Z,1.30
2022-08-20T16:40:49.820Z,1.30
2022-08-20T16:43:59.314Z,1.23
2022-08-20T16:47:32.105Z,1.35
2022-08-20T16:50:57.773Z,1.30
2022-08-20T16:53:59.548Z,1.30
2022-08-20T16:57:06.182Z,1.20
2022-08-20T17:00:15.965Z,1.48
2022-08-20T17:03:31.484Z,1.45
2022-08-20T17:06:47.717Z,1.27
2022-08-20T17:09:50.410Z,1.30
2022-08-20T17:12:59.549Z,1.30
2022-08-20T17:16:07.084Z,1.20
2022-08-20T17:19:27.074Z,1.20
2022-08-20T17:22:30.973Z,1.50
2022-08-20T17:25:38.421Z,1.30
2022-08-20T17:28:49.912Z,1.23
2022-08-20T17:32:00.606Z,1.40
2022-08-20T17:35:04.706Z,1.40
2022-08-20T17:38:06.471Z,1.23
2022-08-20T17:41:17.248Z,1.30
2022-08-20T17:44:34.431Z,1.40
2022-08-20T17:47:38.849Z,1.60
2022-08-20T17:50:42.368Z,1.33
2022-08-20T17:53:57.853Z,1.40
2022-08-20T17:57:04.363Z,1.45
2022-08-20T18:00:15.545Z,1.42
2022-08-20T18:03:20.541Z,1.40
2022-08-20T18:06:40.939Z,1.42
2022-08-20T18:09:51.026Z,1.40
2022-08-20T18:12:54.155Z,1.40
2022-08-20T18:15:58.390Z,1.30
2022-08-20T18:19:15.437Z,1.48
2022-08-20T18:22:23.241Z,1.42
2022-08-20T18:25:28.268Z,1.50
2022-08-20T18:28:38.689Z,1.40
2022-08-20T18:31:43.580Z,1.55
2022-08-20T18:34:45.268Z,1.45
2022-08-20T18:37:48.480Z,1.45
2022-08-20T18:40:54.947Z,1.38
2022-08-20T18:44:11.326Z,1.50
2022-08-20T18:47:45.090Z,1.40
2022-08-20T18:50:51.186Z,1.50
2022-08-20T18:53:55.398Z,1.45
2022-08-20T18:57:18.384Z,1.50
2022-08-20T19:00:26.375Z,1.60
2022-08-20T19:03:36.577Z,1.50
2022-08-20T19:07:10.366Z,1.40
2022-08-20T19:10:27.519Z,1.83
2022-08-20T19:14:02.487Z,1.38
2022-08-20T19:17:18.091Z,1.52
2022-08-20T19:20:27.739Z,1.65
2022-08-20T19:23:38.213Z,1.55
2022-08-20T19:26:48.178Z,1.50
2022-08-20T19:29:50.721Z,1.38
2022-08-20T19:32:59.197Z,1.60
2022-08-20T19:36:12.809Z,1.70
2022-08-20T19:39:20.346Z,1.48
2022-08-20T19:42:32.220Z,1.42
2022-08-20T19:45:46.679Z,1.70
2022-08-20T19:48:48.410Z,1.67
2022-08-20T19:52:02.517Z,1.50
2022-08-20T19:55:04.942Z,1.70
2022-08-20T19:58:26.162Z,1.60
2022-08-20T20:01:29.153Z,1.42
2022-08-20T20:04:54.735Z,1.50
2022-08-20T20:07:58.742Z,1.60
2022-08-20T20:11:01.175Z,1.50
2022-08-20T20:14:07.914Z,1.80
2022-08-20T20:17:14.532Z,1.67
2022-08-20T20:20:23.072Z,1.75
2022-08-20T20:23:45.452Z,1.50
2022-08-20T20:26:49.708Z,1.67
2022-08-20T20:30:06.784Z,1.35
2022-08-20T20:33:32.082Z,1.90
2022-08-20T20:36:42.573Z,1.55
2022-08-20T20:39:46.791Z,1.55
2022-08-20T20:43:27.478Z,1.50
2022-08-20T20:46:32.223Z,1.70
2022-08-20T20:49:56.451Z,1.60
2022-08-20T20:52:59.015Z,1.77
2022-08-20T20:56:01.011Z,1.58
2022-08-20T20:59:06.863Z,1.63
2022-08-20T21:02:09.330Z,1.60
2022-08-20T21:05:14.101Z,1.80
2022-08-20T21:08:15.783Z,1.70
2022-08-20T21:11:17.526Z,1.63
2022-08-20T21:14:20.117Z,1.50
2022-08-20T21:17:23.238Z,2.05
2022-08-20T21:20:25.139Z,2.35
2022-08-20T21:23:40.418Z,1.98
2022-08-20T21:29:46.040Z,1.83
2022-08-20T21:32:48.030Z,1.67
2022-08-20T21:35:49.934Z,1.60
2022-08-20T21:38:51.776Z,1.80
2022-08-20T21:41:56.668Z,1.75
2022-08-20T21:44:59.624Z,1.70
2022-08-20T21:48:01.323Z,2.03
2022-08-20T21:51:03.304Z,1.63
2022-08-20T21:54:05.574Z,1.80
2022-08-20T21:57:24.044Z,1.80
2022-08-20T22:00:56.224Z,1.70
2022-08-20T22:03:59.385Z,1.60
2022-08-20T22:07:02.457Z,1.40
2022-08-20T22:10:05.761Z,1.55
2022-08-20T22:13:08.688Z,1.60
2022-08-20T22:16:13.116Z,1.80
2022-08-20T22:19:16.371Z,1.88
2022-08-20T22:22:20.625Z,1.50
2022-08-20T22:25:23.432Z,1.67
2022-08-20T22:28:25.367Z,1.60
2022-08-20T22:31:31.852Z,1.52
2022-08-20T22:34:35.926Z,1.70
2022-08-20T22:37:38.038Z,1.50
2022-08-20T22:40:39.878Z,1.83
2022-08-20T22:43:43.217Z,1.70
2022-08-20T22:47:00.235Z,1.80
2022-08-20T22:50:04.140Z,1.60
2022-08-20T22:53:07.222Z,1.90
2022-08-20T22:56:09.475Z,1.83
2022-08-20T22:59:23.185Z,1.92
2022-08-20T23:02:25.092Z,2.00
2022-08-20T23:05:29.846Z,2.10
2022-08-20T23:08:33.299Z,2.03
2022-08-20T23:11:35.280Z,1.85
2022-08-20T23:14:37.510Z,1.95
2022-08-20T23:17:39.903Z,2.20
2022-08-20T23:20:46.059Z,1.92
2022-08-20T23:23:47.931Z,1.95
2022-08-20T23:26:53.108Z,2.03
2022-08-20T23:29:55.397Z,1.95
2022-08-20T23:32:57.616Z,1.85
2022-08-20T23:36:07.851Z,1.88
2022-08-20T23:39:10.123Z,2.03
2022-08-20T23:42:13.179Z,1.85
2022-08-20T23:45:15.663Z,1.98
2022-08-20T23:48:17.378Z,2.00
2022-08-20T23:51:20.165Z,1.90
2022-08-20T23:54:21.944Z,2.00
2022-08-20T23:57:23.881Z,2.00
